Pronóstico
Mapa Interactivo
Aviación
Climatología
Hidrometeorología
Agrometeorología
Estaciones Automáticas
Transparencia
OMM WMO
Portada
Institución
Noticias
Imágenes
Tsunami
Historial
Boletines y Alertas
Contactos
Buscar Contenidos
Informe del Tiempo

VUELOS DE BAJO NIVEL DESDE SUPERFICIE HASTA 24,000 PIES. 

VALIDO DESDE 191200Z...…………………….…………………HASTA 200000Z 

SANTO DOMINGO FIR...PORT-AU-PRINCE FIR HISPANIOLA... BKN020 BKN060 TOP 120. WDLY SCT SHRA/ISOL TSRA. OTLK...VFR SHRA...OCNL MVFR CIG SHRA BR. WTRS...SCT030 SCT060. ISOL SHRA. OTLK...VFR SHRA. 

 

5,000 FT.

10,000 FT.

18,000 FT.

24,000 FT.

MDSD

1810KT+18ºC

1510KT+08ºC

1010KT-08ºC

0710KT-21ºC

MTPP

2010KT+18ºC

1610KT+08ºC

1310KT-08ºC

0910KT-21ºC

TJSJ

1420KT+16ºC

1415KT+07ºC

0605KT-09ºC

3605KT-21ºC

 

 

 

 

 

 TAF 

 TAF MDPP 191000Z 1912/2012 00000KT 9999 SCT018 BECMG 1914/1916 08010KT=

TAF MDST 191000Z 1912/2012 10010KT 9999 SCT018

TAF MDPC 191000Z 1912/2012 13005KT 9999 FEW018 BECMG 1915/1917 15010KT PROB30 1922/2002 5000 TSRA FEW016CB SCT018 BKN070=

TAF MDBH 191000Z 1912/2012 00000KT 9999 FEW016CB SCT018 SCT080 BECMG 13012KT PROB30 1920/2002 7000 -RA FEW014CB BKN014 OVC070 =

TAF MDJB 191000Z 1912/2012 00000KT 9999 SCT018 BECMG 1914/1916 09008KT BECMG 1918/1920 18010KT TEMPO 1918/2000 6000 TSRA FEW014CB BKN016 BKN070 = 

TAF MDSD 191000Z 1912/2012 04005KT 9999 FEW016CB SCT018 PROB30 1912/1918 7000 -TSRA FEW014CB BKN016 SCT070 BECMG 1914/1916 13008KT TEMPO 1919/2001 6000 TSRA FEW014CB BKN016 BKN070=

TAF MDLR 191000Z 1912/2012 00000KT 9999 FEW016CB SCT018 BECMG 1915/1917 16012KT TEMPO 1918/2000 6000 TSRA FEW014CB BKN016 BKN070 = 

TAF MDCY 191000Z 1912/2012 00000KT 9999 SCT018 BECMG 1915/1917 09008KT TEMPO 1918/2000 7000 -TSRA FEW014CB BKN016 BKN070=

KMIA 190901Z 1909/2012 VRB04KT P6SM FEW025 FEW250 FM191600 13008KT P6SM FEW025 FEW250 FM200200 VRB05KT P6SM FEW250 

KJFK 190838Z 1909/2012 04008KT 6SM -SHRA SCT030 OVC050 FM191200 03009KT 5SM BR VCSH OVC025 FM191700 33011KT 4SM -RA BR SCT008 OVC015 FM192000 33013G21KT 6SM -SHRA BKN025 FM192200 31020G28KT P6SM BKN050 FM200600 31016G24KT P6SM SCT040 

TJSJ 190539Z 1906/2006 10007KT P6SM VCSH FEW035 SCT045 SCT100 FM191300 08012KT P6SM VCSH SCT030 SCT045 PROB30 1916/1920 4SM SHRA SCT030 BKN050 FM192000 10012KT P6SM FEW040 SCT100 FM200100 11003KT P6SM FEW045 

MUHA 190500Z 1906/2006 10005KT 9000 FEW025 TEMPO 1908/1912 3000 PRFG BECMG 1919/1921 01013KT BECMG 2001/2003 VRB03KT 

TAF MUGM 1907/2007 32006KT 9999 FEW030 QNH2998INS BECMG 1915/1917 14011KT 9999 VCSH FEW030CB SCT080 SCT250 QNH2999INS FM192100 17006KT 9999 VCSH SCT030 BKN060 BKN250 QNH2999INS BECMG 2000/2002 33008KT 9999 NSW FEW030 SCT200 QNH2998INS T23/1911Z T31/1918Z FN00170 

TAF TNCC 191000Z 1912/2012 11017KT 9999 SCT018 

TAF MKJP 190515Z 1906/2006 36005KT 9999 FEW024 BECMG 1914/1916 14018KT FEW022CB BECMG 2000/2002 36005KT FEW022 PROB30 TEMPO 2000/2004 8000 SHRA SCT018 

PREPARADO POR: ELIZABETH FELIZ. 19 DE ABRIL DEL 2018-